RSD058 URRP-UUWW
Flight info
| Callsign | RSD058 |
|---|---|
| Flight time | N/A |
| Altitude | 35000 |
| Route | ABLOG TEDRU R720 MOR G128 NATIT W21 PELNE OLOPI |
| Aircraft | T204/M-V/N |
Departure
| Time | 2026-04-25 13:16 |
|---|---|
| Airport | Platov International Airport (URRP) |
Arrival
| Time | N/A |
|---|---|
| Airport | Vnukovo International Airport (UUWW) |
| Time | Latitude | Longitude | Altitude | Speed | Heading |
|---|---|---|---|---|---|
| 2026-04-25 12:58 | 47.48915 | 39.92715 | 205 ft | 0 kts | 144° |
| 2026-04-25 13:07 | 47.48919 | 39.92711 | 206 ft | 2 kts | 143° |
| 2026-04-25 13:07 | 47.48931 | 39.92698 | 206 ft | 2 kts | 143° |
| 2026-04-25 13:07 | 47.48944 | 39.92684 | 206 ft | 2 kts | 143° |
| 2026-04-25 13:07 | 47.48956 | 39.92671 | 207 ft | 2 kts | 143° |
| 2026-04-25 13:08 | 47.48967 | 39.92659 | 207 ft | 2 kts | 144° |
| 2026-04-25 13:08 | 47.48975 | 39.92650 | 207 ft | 1 kts | 144° |
| 2026-04-25 13:08 | 47.48984 | 39.92635 | 207 ft | 2 kts | 110° |
| 2026-04-25 13:08 | 47.48983 | 39.92614 | 208 ft | 1 kts | 65° |
| 2026-04-25 13:09 | 47.48981 | 39.92607 | 208 ft | 1 kts | 55° |
| 2026-04-25 13:09 | 47.48977 | 39.92596 | 208 ft | 1 kts | 59° |
| 2026-04-25 13:09 | 47.48974 | 39.92590 | 208 ft | 0 kts | 56° |
| 2026-04-25 13:11 | 47.48989 | 39.92623 | 208 ft | 8 kts | 55° |
| 2026-04-25 13:12 | 47.49063 | 39.92777 | 210 ft | 20 kts | 54° |
| 2026-04-25 13:12 | 47.49136 | 39.92927 | 223 ft | 17 kts | 53° |
| 2026-04-25 13:12 | 47.49215 | 39.93090 | 222 ft | 21 kts | 54° |
| 2026-04-25 13:12 | 47.49276 | 39.93213 | 223 ft | 24 kts | 54° |
| 2026-04-25 13:13 | 47.49399 | 39.93428 | 250 ft | 10 kts | 9° |
| 2026-04-25 13:13 | 47.49507 | 39.93338 | 246 ft | 22 kts | 323° |
| 2026-04-25 13:13 | 47.49607 | 39.93341 | 250 ft | 12 kts | 48° |
| 2026-04-25 13:13 | 47.49675 | 39.93478 | 251 ft | 16 kts | 54° |
| 2026-04-25 13:14 | 47.49740 | 39.93608 | 252 ft | 14 kts | 53° |
| 2026-04-25 13:14 | 47.49792 | 39.93713 | 254 ft | 10 kts | 53° |
| 2026-04-25 13:14 | 47.49835 | 39.93800 | 255 ft | 15 kts | 54° |
| 2026-04-25 13:14 | 47.49900 | 39.93935 | 257 ft | 14 kts | 49° |
| 2026-04-25 13:15 | 47.49984 | 39.93971 | 261 ft | 13 kts | 332° |
| 2026-04-25 13:15 | 47.50043 | 39.93916 | 266 ft | 9 kts | 324° |
| 2026-04-25 13:15 | 47.50053 | 39.93829 | 267 ft | 4 kts | 234° |
| 2026-04-25 13:15 | 47.50037 | 39.93798 | 267 ft | 3 kts | 234° |
| 2026-04-25 13:16 | 47.49932 | 39.93578 | 264 ft | 70 kts | 234° |
| 2026-04-25 13:16 | 47.49450 | 39.92592 | 311 ft | 162 kts | 236° |
| 2026-04-25 13:16 | 47.48710 | 39.91117 | 1176 ft | 196 kts | 238° |
| 2026-04-25 13:16 | 47.47998 | 39.89359 | 1568 ft | 205 kts | 253° |
| 2026-04-25 13:17 | 47.48140 | 39.87142 | 1996 ft | 227 kts | 295° |
| 2026-04-25 13:17 | 47.49325 | 39.85439 | 2528 ft | 254 kts | 331° |
| 2026-04-25 13:17 | 47.51051 | 39.85032 | 3030 ft | 262 kts | 4° |
| 2026-04-25 13:17 | 47.52827 | 39.85637 | 3553 ft | 260 kts | 12° |
| 2026-04-25 13:18 | 47.54547 | 39.86385 | 4052 ft | 261 kts | 14° |
| 2026-04-25 13:18 | 47.56267 | 39.87167 | 4550 ft | 262 kts | 14° |
| 2026-04-25 13:18 | 47.58021 | 39.87971 | 5052 ft | 266 kts | 14° |
| 2026-04-25 13:18 | 47.59803 | 39.88791 | 5557 ft | 268 kts | 14° |
| 2026-04-25 13:19 | 47.61577 | 39.89607 | 6057 ft | 268 kts | 14° |
| 2026-04-25 13:19 | 47.63309 | 39.90559 | 6547 ft | 270 kts | 26° |
| 2026-04-25 13:19 | 47.64745 | 39.92365 | 7044 ft | 277 kts | 47° |
| 2026-04-25 13:19 | 47.65494 | 39.93970 | 7389 ft | 283 kts | 56° |
| 2026-04-25 13:20 | 47.66780 | 39.97371 | 8062 ft | 283 kts | 59° |
| 2026-04-25 13:20 | 47.67670 | 39.99909 | 8555 ft | 282 kts | 59° |
| 2026-04-25 13:20 | 47.68566 | 40.02495 | 9056 ft | 283 kts | 59° |
| 2026-04-25 13:20 | 47.69474 | 40.05130 | 9561 ft | 285 kts | 60° |
| 2026-04-25 13:21 | 47.70374 | 40.07747 | 10060 ft | 287 kts | 60° |
| 2026-04-25 13:21 | 47.71286 | 40.10407 | 10563 ft | 289 kts | 60° |
| 2026-04-25 13:21 | 47.72192 | 40.13053 | 11061 ft | 290 kts | 60° |
| 2026-04-25 13:21 | 47.73106 | 40.15725 | 11563 ft | 291 kts | 60° |
| 2026-04-25 13:22 | 47.74027 | 40.18416 | 12075 ft | 312 kts | 60° |
| 2026-04-25 13:22 | 47.74896 | 40.20951 | 12534 ft | 320 kts | 60° |